createdAt,value
2022-08-17T00:00:16.582Z,22.70
2022-08-17T00:03:00.104Z,22.70
2022-08-17T00:05:32.526Z,22.70
2022-08-17T00:08:00.072Z,22.70
2022-08-17T00:10:27.862Z,22.70
2022-08-17T00:12:57.422Z,22.60
2022-08-17T00:15:25.180Z,22.60
2022-08-17T00:17:53.120Z,22.60
2022-08-17T00:20:21.601Z,22.60
2022-08-17T00:23:08.599Z,22.60
2022-08-17T00:25:36.626Z,22.60
2022-08-17T00:28:04.939Z,22.60
2022-08-17T00:30:53.109Z,22.60
2022-08-17T00:33:27.959Z,22.60
2022-08-17T00:35:56.629Z,22.50
2022-08-17T00:38:25.670Z,22.60
2022-08-17T00:41:00.118Z,22.60
2022-08-17T00:43:32.608Z,22.50
2022-08-17T00:46:02.948Z,22.50
2022-08-17T00:48:31.824Z,22.40
2022-08-17T00:51:09.977Z,22.40
2022-08-17T00:53:42.217Z,22.40
2022-08-17T00:56:13.964Z,22.40
2022-08-17T00:58:42.025Z,22.50
2022-08-17T01:01:12.791Z,22.40
2022-08-17T01:03:51.868Z,22.30
2022-08-17T01:06:21.623Z,22.30
2022-08-17T01:08:57.569Z,22.30
2022-08-17T01:11:26.720Z,22.30
2022-08-17T01:13:54.641Z,22.20
2022-08-17T01:16:26.438Z,22.20
2022-08-17T01:18:57.797Z,22.20
2022-08-17T01:21:44.997Z,22.20
2022-08-17T01:24:13.545Z,22.20
2022-08-17T01:26:44.459Z,22.20
2022-08-17T01:29:13.129Z,22.20
2022-08-17T01:31:45.955Z,22.10
2022-08-17T01:34:15.749Z,22.10
2022-08-17T01:36:46.699Z,22.10
2022-08-17T01:39:49.186Z,22.10
2022-08-17T01:42:26.731Z,22.10
2022-08-17T01:44:59.189Z,22.10
2022-08-17T01:47:26.805Z,22.00
2022-08-17T01:49:57.461Z,22.00
2022-08-17T01:52:25.133Z,22.00
2022-08-17T01:54:53.461Z,21.90
2022-08-17T01:57:21.041Z,21.90
2022-08-17T01:59:48.726Z,21.90
2022-08-17T02:02:30.665Z,21.90
2022-08-17T02:04:59.985Z,21.90
2022-08-17T02:07:27.931Z,21.80
2022-08-17T02:09:55.605Z,21.80
2022-08-17T02:12:48.714Z,21.80
2022-08-17T02:15:14.595Z,21.80
2022-08-17T02:17:44.148Z,21.70
2022-08-17T02:20:11.706Z,21.70
2022-08-17T02:22:41.522Z,21.70
2022-08-17T02:25:11.420Z,21.70
2022-08-17T02:27:39.656Z,21.60
2022-08-17T02:31:02.154Z,21.70
2022-08-17T02:32:57.767Z,21.60
2022-08-17T02:35:25.355Z,21.60
2022-08-17T02:37:55.452Z,21.60
2022-08-17T02:40:35.750Z,21.50
2022-08-17T02:43:05.467Z,21.60
2022-08-17T02:45:33.067Z,21.50
2022-08-17T02:48:01.070Z,21.40
2022-08-17T02:50:29.032Z,21.40
2022-08-17T02:53:02.210Z,21.40
2022-08-17T02:55:37.205Z,21.50
2022-08-17T02:58:05.624Z,21.40
2022-08-17T03:00:36.557Z,21.50
2022-08-17T03:03:06.048Z,21.40
2022-08-17T03:05:35.782Z,21.40
2022-08-17T03:08:05.530Z,21.40
2022-08-17T03:10:33.552Z,21.40
2022-08-17T03:13:01.869Z,21.30
2022-08-17T03:15:33.826Z,21.20
2022-08-17T03:18:03.838Z,21.20
2022-08-17T03:20:33.840Z,21.30
2022-08-17T03:23:01.922Z,21.30
2022-08-17T03:25:34.515Z,21.30
2022-08-17T03:28:04.324Z,21.30
2022-08-17T03:30:32.189Z,21.30
2022-08-17T03:33:02.593Z,21.30
2022-08-17T03:35:33.313Z,21.30
2022-08-17T03:38:01.477Z,21.20
2022-08-17T03:40:34.449Z,21.30
2022-08-17T03:43:19.418Z,21.20
2022-08-17T03:46:05.955Z,21.20
2022-08-17T03:48:56.858Z,21.20
2022-08-17T03:51:43.586Z,21.20
2022-08-17T03:54:30.071Z,21.10
2022-08-17T03:57:04.418Z,21.10
2022-08-17T03:59:32.947Z,21.20
2022-08-17T04:02:10.084Z,21.20
2022-08-17T04:04:38.739Z,21.20
2022-08-17T04:07:07.066Z,21.20
2022-08-17T04:09:35.177Z,21.20
2022-08-17T04:12:04.992Z,21.20
2022-08-17T04:14:52.178Z,21.20
2022-08-17T04:17:24.504Z,21.20
2022-08-17T04:19:52.747Z,21.30
2022-08-17T04:22:30.823Z,21.20
2022-08-17T04:25:04.245Z,21.20
2022-08-17T04:27:32.009Z,21.20
2022-08-17T04:30:00.905Z,21.20
2022-08-17T04:33:19.132Z,21.30
2022-08-17T04:35:28.888Z,21.30
2022-08-17T04:37:57.340Z,21.30
2022-08-17T04:40:46.211Z,21.30
2022-08-17T04:43:20.798Z,21.30
2022-08-17T04:45:55.769Z,21.30
2022-08-17T04:48:36.096Z,21.30
2022-08-17T04:51:31.948Z,21.30
2022-08-17T04:54:02.987Z,21.30
2022-08-17T04:56:31.776Z,21.40
2022-08-17T04:59:03.743Z,21.40
2022-08-17T05:01:34.535Z,21.30
2022-08-17T05:04:20.889Z,21.30
2022-08-17T05:06:55.361Z,21.40
2022-08-17T05:09:23.103Z,21.30
2022-08-17T05:11:52.001Z,21.30
2022-08-17T05:14:19.369Z,21.30
2022-08-17T05:16:49.493Z,21.40
2022-08-17T05:19:16.899Z,21.40
2022-08-17T05:21:44.851Z,21.40
2022-08-17T05:24:38.208Z,21.40
2022-08-17T05:27:06.318Z,21.40
2022-08-17T05:29:35.450Z,21.40
2022-08-17T05:32:38.059Z,21.40
2022-08-17T05:35:00.630Z,21.50
2022-08-17T05:37:28.579Z,21.50
2022-08-17T05:39:56.169Z,21.40
2022-08-17T05:42:24.359Z,21.50
2022-08-17T05:44:52.339Z,21.50
2022-08-17T05:47:20.629Z,21.50
2022-08-17T05:49:49.100Z,21.60
2022-08-17T05:52:41.568Z,21.60
2022-08-17T05:55:27.280Z,21.50
2022-08-17T05:58:19.998Z,21.50
2022-08-17T06:00:56.850Z,21.50
2022-08-17T06:03:40.370Z,21.40
2022-08-17T06:06:44.947Z,21.40
2022-08-17T06:09:37.510Z,21.50
2022-08-17T06:12:46.085Z,21.40
2022-08-17T06:15:36.226Z,21.50
2022-08-17T06:18:08.506Z,21.50
2022-08-17T06:20:52.496Z,21.60
2022-08-17T06:23:30.537Z,21.60
2022-08-17T06:26:05.966Z,21.60
2022-08-17T06:28:44.508Z,21.60
2022-08-17T06:31:34.753Z,21.70
2022-08-17T06:34:04.775Z,21.70
2022-08-17T06:36:44.123Z,21.70
2022-08-17T06:39:43.484Z,21.70
2022-08-17T06:42:54.910Z,21.70
2022-08-17T06:45:20.633Z,21.70
2022-08-17T06:48:12.051Z,21.70
2022-08-17T06:50:47.511Z,21.80
2022-08-17T06:53:21.344Z,21.80
2022-08-17T06:56:11.739Z,21.80
2022-08-17T06:58:43.573Z,21.80
2022-08-17T07:01:25.355Z,21.80
2022-08-17T07:04:14.121Z,21.80
2022-08-17T07:06:52.760Z,21.80
2022-08-17T07:09:36.388Z,21.80
2022-08-17T07:12:18.103Z,21.90
2022-08-17T07:15:20.918Z,21.90
2022-08-17T07:17:49.697Z,22.00
2022-08-17T07:20:22.712Z,22.00
2022-08-17T07:23:05.263Z,22.10
2022-08-17T07:25:33.282Z,22.10
2022-08-17T07:28:07.024Z,22.20
2022-08-17T07:30:54.921Z,22.20
2022-08-17T07:33:28.519Z,22.20
2022-08-17T07:35:58.448Z,22.30
2022-08-17T07:38:30.273Z,22.40
2022-08-17T07:41:02.270Z,22.50
2022-08-17T07:43:31.136Z,22.50
2022-08-17T07:46:25.202Z,22.60
2022-08-17T07:49:15.667Z,22.70
2022-08-17T07:51:43.765Z,22.80
2022-08-17T07:54:23.690Z,22.80
2022-08-17T07:56:55.840Z,22.90
2022-08-17T07:59:28.700Z,23.00
2022-08-17T08:02:06.308Z,23.00
2022-08-17T08:05:00.458Z,23.10
2022-08-17T08:07:36.186Z,23.20
2022-08-17T08:10:27.957Z,23.30
2022-08-17T08:13:24.984Z,23.40
2022-08-17T08:15:57.109Z,23.40
2022-08-17T08:18:53.845Z,23.50
2022-08-17T08:21:38.289Z,23.50
2022-08-17T08:24:40.352Z,23.70
2022-08-17T08:27:23.613Z,23.70
2022-08-17T08:29:57.977Z,23.70
2022-08-17T08:32:50.183Z,23.80
2022-08-17T08:35:38.199Z,23.90
2022-08-17T08:38:17.633Z,23.90
2022-08-17T08:41:00.751Z,23.90
2022-08-17T08:43:36.370Z,24.00
2022-08-17T08:46:20.164Z,24.10
2022-08-17T08:49:12.657Z,24.10
2022-08-17T08:51:56.714Z,24.20
2022-08-17T08:54:57.016Z,24.30
2022-08-17T08:57:34.674Z,24.30
2022-08-17T09:00:18.405Z,24.40
2022-08-17T09:03:14.452Z,24.40
2022-08-17T09:06:37.720Z,24.60
2022-08-17T09:09:36.456Z,24.60
2022-08-17T09:12:14.141Z,24.70
2022-08-17T09:14:51.902Z,24.80
2022-08-17T09:17:36.313Z,24.90
2022-08-17T09:20:28.703Z,24.80
2022-08-17T09:23:08.693Z,25.00
2022-08-17T09:25:50.120Z,25.00
2022-08-17T09:28:27.389Z,25.10
2022-08-17T09:31:03.840Z,25.10
2022-08-17T09:33:37.350Z,25.10
2022-08-17T09:36:23.430Z,25.20
2022-08-17T09:39:06.493Z,25.40
2022-08-17T09:41:40.023Z,25.30
2022-08-17T09:44:51.963Z,25.40
2022-08-17T09:47:22.549Z,25.40
2022-08-17T09:50:02.062Z,25.40
2022-08-17T09:52:32.008Z,25.40
2022-08-17T09:55:02.047Z,25.50
2022-08-17T09:57:39.025Z,25.60
2022-08-17T10:00:19.106Z,25.60
2022-08-17T10:03:01.951Z,25.60
2022-08-17T10:05:41.575Z,25.70
2022-08-17T10:08:17.442Z,25.80
2022-08-17T10:11:07.946Z,25.90
2022-08-17T10:14:02.408Z,26.00
2022-08-17T10:17:03.052Z,26.00
2022-08-17T10:19:36.242Z,26.00
2022-08-17T10:22:38.330Z,26.00
2022-08-17T10:25:42.854Z,26.10
2022-08-17T10:28:28.777Z,26.20
2022-08-17T10:31:30.747Z,26.20
2022-08-17T10:34:00.482Z,26.30
2022-08-17T10:36:41.760Z,26.40
2022-08-17T10:39:12.410Z,26.40
2022-08-17T10:41:45.041Z,26.30
2022-08-17T10:44:47.351Z,26.50
2022-08-17T10:47:19.891Z,26.50
2022-08-17T10:49:54.342Z,26.60
2022-08-17T10:52:27.724Z,26.70
2022-08-17T10:54:57.892Z,26.70
2022-08-17T10:57:39.925Z,26.80
2022-08-17T11:00:15.970Z,26.70
2022-08-17T11:02:51.042Z,26.90
2022-08-17T11:05:45.260Z,26.90
2022-08-17T11:08:32.391Z,26.90
2022-08-17T11:11:12.603Z,26.90
2022-08-17T11:13:48.746Z,26.90
2022-08-17T11:16:25.558Z,27.10
2022-08-17T11:19:24.262Z,27.10
2022-08-17T11:22:21.126Z,27.20
2022-08-17T11:24:52.821Z,27.10
2022-08-17T11:27:31.323Z,27.20
2022-08-17T11:30:09.297Z,27.20
2022-08-17T11:32:52.876Z,27.40
2022-08-17T11:35:39.080Z,27.50
2022-08-17T11:38:27.832Z,27.60
2022-08-17T11:41:04.572Z,27.60
2022-08-17T11:43:43.601Z,27.50
2022-08-17T11:46:57.031Z,27.30
2022-08-17T11:50:17.059Z,27.20
2022-08-17T11:52:47.678Z,27.30
2022-08-17T11:55:41.756Z,27.40
2022-08-17T11:58:28.063Z,27.50
2022-08-17T12:00:59.491Z,27.60
2022-08-17T12:03:33.546Z,27.60
2022-08-17T12:06:21.372Z,27.50
2022-08-17T12:08:55.347Z,27.50
2022-08-17T12:11:57.815Z,27.50
2022-08-17T12:14:35.733Z,27.40
2022-08-17T12:17:14.361Z,27.30
2022-08-17T12:19:55.806Z,27.30
2022-08-17T12:22:33.085Z,27.30
2022-08-17T12:25:15.754Z,27.20
2022-08-17T12:28:05.227Z,27.30
2022-08-17T12:30:38.497Z,27.20
2022-08-17T12:33:25.305Z,27.20
2022-08-17T12:36:06.015Z,27.30
2022-08-17T12:38:37.407Z,27.40
2022-08-17T12:41:28.183Z,27.40
2022-08-17T12:43:58.841Z,27.40
2022-08-17T12:46:26.491Z,27.40
2022-08-17T12:49:10.732Z,27.40
2022-08-17T12:51:47.179Z,27.40
2022-08-17T12:54:29.499Z,27.40
2022-08-17T12:57:02.398Z,27.40
2022-08-17T12:59:33.525Z,27.60
2022-08-17T13:02:02.900Z,27.70
2022-08-17T13:04:32.852Z,27.70
2022-08-17T13:07:00.807Z,27.70
2022-08-17T13:09:35.630Z,27.80
2022-08-17T13:12:09.348Z,27.70
2022-08-17T13:14:37.170Z,27.80
2022-08-17T13:17:13.337Z,27.80
2022-08-17T13:19:50.207Z,27.90
2022-08-17T13:22:23.890Z,28.00
2022-08-17T13:25:05.574Z,28.00
2022-08-17T13:27:35.368Z,28.00
2022-08-17T13:30:12.684Z,28.10
2022-08-17T13:32:45.693Z,28.00
2022-08-17T13:35:39.751Z,28.00
2022-08-17T13:38:14.928Z,28.00
2022-08-17T13:40:49.434Z,28.10
2022-08-17T13:43:42.073Z,28.00
2022-08-17T13:46:17.483Z,27.80
2022-08-17T13:48:46.011Z,27.80
2022-08-17T13:51:17.791Z,27.80
2022-08-17T13:53:47.227Z,27.70
2022-08-17T13:56:38.571Z,27.70
2022-08-17T13:59:12.960Z,27.60
2022-08-17T14:01:53.765Z,27.50
2022-08-17T14:04:31.649Z,27.50
2022-08-17T14:07:33.971Z,27.30
2022-08-17T14:10:12.016Z,27.20
2022-08-17T14:12:42.790Z,27.20
2022-08-17T14:15:13.341Z,27.10
2022-08-17T14:17:41.796Z,27.00
2022-08-17T14:20:12.346Z,26.90
2022-08-17T14:22:44.795Z,27.00
2022-08-17T14:25:15.063Z,27.00
2022-08-17T14:27:52.351Z,26.90
2022-08-17T14:30:23.657Z,26.80
2022-08-17T14:32:52.532Z,26.80
2022-08-17T14:35:23.243Z,26.80
2022-08-17T14:37:52.151Z,26.80
2022-08-17T14:40:21.021Z,26.80
2022-08-17T14:42:48.864Z,26.80
2022-08-17T14:45:31.762Z,26.70
2022-08-17T14:48:07.831Z,26.70
2022-08-17T14:50:38.936Z,26.60
2022-08-17T14:53:08.661Z,26.60
2022-08-17T14:55:40.085Z,26.70
2022-08-17T14:58:10.260Z,26.70
2022-08-17T15:00:39.809Z,26.70
2022-08-17T15:03:07.425Z,26.70
2022-08-17T15:05:40.205Z,26.80
2022-08-17T15:08:08.245Z,26.80
2022-08-17T15:10:37.293Z,26.80
2022-08-17T15:13:15.380Z,26.90
2022-08-17T15:15:42.853Z,26.90
2022-08-17T15:18:10.184Z,26.90
2022-08-17T15:20:37.726Z,26.90
2022-08-17T15:23:07.132Z,27.10
2022-08-17T15:25:34.872Z,27.00
2022-08-17T15:28:02.617Z,27.00
2022-08-17T15:30:30.779Z,27.00
2022-08-17T15:32:59.567Z,27.00
2022-08-17T15:35:32.837Z,26.90
2022-08-17T15:38:11.567Z,26.90
2022-08-17T15:40:45.691Z,26.80
2022-08-17T15:43:23.449Z,26.70
2022-08-17T15:46:04.708Z,26.60
2022-08-17T15:48:43.546Z,26.60
2022-08-17T15:51:12.196Z,26.50
2022-08-17T15:53:40.785Z,26.50
2022-08-17T15:56:08.676Z,26.40
2022-08-17T15:58:38.177Z,26.30
2022-08-17T16:01:16.535Z,26.30
2022-08-17T16:04:03.893Z,26.20
2022-08-17T16:06:34.836Z,26.10
2022-08-17T16:09:02.366Z,26.10
2022-08-17T16:11:29.829Z,26.00
2022-08-17T16:14:00.825Z,26.00
2022-08-17T16:16:31.495Z,25.90
2022-08-17T16:19:02.256Z,25.90
2022-08-17T16:21:42.692Z,25.90
2022-08-17T16:24:13.307Z,25.80
2022-08-17T16:26:41.455Z,25.90
2022-08-17T16:29:08.963Z,25.80
2022-08-17T16:31:37.952Z,25.80
2022-08-17T16:34:17.626Z,25.70
2022-08-17T16:36:54.894Z,25.60
2022-08-17T16:39:25.997Z,25.60
2022-08-17T16:41:53.924Z,25.60
2022-08-17T16:44:22.029Z,25.60
2022-08-17T16:46:50.548Z,25.60
2022-08-17T16:49:31.585Z,25.60
2022-08-17T16:52:10.383Z,25.50
2022-08-17T16:54:44.499Z,25.50
2022-08-17T16:57:14.592Z,25.40
2022-08-17T16:59:47.802Z,25.40
2022-08-17T17:02:23.796Z,25.30
2022-08-17T17:05:19.571Z,25.20
2022-08-17T17:08:03.787Z,25.20
2022-08-17T17:10:45.126Z,25.10
2022-08-17T17:13:51.388Z,25.00
2022-08-17T17:16:25.117Z,24.90
2022-08-17T17:19:34.884Z,24.90
2022-08-17T17:22:23.046Z,24.80
2022-08-17T17:25:08.734Z,24.70
2022-08-17T17:28:02.633Z,24.60
2022-08-17T17:31:05.888Z,24.60
2022-08-17T17:34:01.201Z,24.60
2022-08-17T17:36:50.631Z,24.60
2022-08-17T17:39:34.563Z,24.50
2022-08-17T17:42:09.069Z,24.40
2022-08-17T17:44:44.295Z,24.40
2022-08-17T17:47:13.372Z,24.30
2022-08-17T17:49:44.155Z,24.20
2022-08-17T17:52:28.342Z,24.20
2022-08-17T17:55:04.955Z,24.10
2022-08-17T17:58:03.250Z,24.10
2022-08-17T18:00:50.330Z,24.00
2022-08-17T18:03:39.451Z,24.00
2022-08-17T18:06:25.473Z,23.90
2022-08-17T18:09:06.296Z,23.90
2022-08-17T18:11:44.426Z,23.80
2022-08-17T18:14:38.988Z,23.70
2022-08-17T18:17:08.475Z,23.70
2022-08-17T18:19:41.416Z,23.60
2022-08-17T18:22:21.103Z,23.60
2022-08-17T18:24:56.683Z,23.60
2022-08-17T18:27:40.416Z,23.50
2022-08-17T18:30:15.121Z,23.50
2022-08-17T18:32:46.881Z,23.50
2022-08-17T18:35:20.211Z,23.40
2022-08-17T18:37:51.831Z,23.30
2022-08-17T18:40:35.339Z,23.30
2022-08-17T18:43:11.664Z,23.20
2022-08-17T18:45:51.137Z,23.20
2022-08-17T18:48:33.103Z,23.10
2022-08-17T18:51:41.679Z,23.10
2022-08-17T18:54:21.419Z,23.10
2022-08-17T18:57:00.894Z,23.00
2022-08-17T18:59:35.038Z,23.00
2022-08-17T19:02:23.220Z,23.00
2022-08-17T19:05:27.028Z,22.90
2022-08-17T19:08:23.790Z,22.90
2022-08-17T19:11:24.023Z,22.80
2022-08-17T19:13:55.396Z,22.80
2022-08-17T19:16:28.475Z,22.70
2022-08-17T19:19:25.574Z,22.70
2022-08-17T19:22:37.904Z,22.60
2022-08-17T19:25:22.859Z,22.60
2022-08-17T19:28:40.004Z,22.60
2022-08-17T19:31:40.083Z,22.50
2022-08-17T19:34:12.627Z,22.40
2022-08-17T19:36:50.900Z,22.40
2022-08-17T19:39:39.777Z,22.30
2022-08-17T19:42:23.262Z,22.30
2022-08-17T19:45:09.667Z,22.30
2022-08-17T19:47:54.758Z,22.20
2022-08-17T19:50:49.857Z,22.20
2022-08-17T19:54:01.557Z,22.20
2022-08-17T19:56:35.607Z,22.10
2022-08-17T19:59:09.019Z,22.20
2022-08-17T20:01:53.989Z,22.10
2022-08-17T20:04:31.912Z,22.10
2022-08-17T20:07:56.857Z,22.00
2022-08-17T20:11:01.905Z,21.90
2022-08-17T20:13:34.246Z,22.00
2022-08-17T20:16:05.203Z,21.90
2022-08-17T20:18:47.493Z,21.90
2022-08-17T20:21:22.839Z,21.90
2022-08-17T20:23:56.732Z,21.80
2022-08-17T20:26:28.953Z,21.80
2022-08-17T20:29:14.812Z,21.80
2022-08-17T20:31:57.883Z,21.70
2022-08-17T20:34:33.565Z,21.70
2022-08-17T20:37:13.591Z,21.70
2022-08-17T20:40:10.306Z,21.60
2022-08-17T20:42:39.839Z,21.70
2022-08-17T20:45:30.169Z,21.70
2022-08-17T20:48:36.922Z,21.60
2022-08-17T20:51:00.919Z,21.50
2022-08-17T20:53:47.134Z,21.50
2022-08-17T20:56:46.667Z,21.50
2022-08-17T20:59:27.742Z,21.50
2022-08-17T21:02:18.573Z,21.50
2022-08-17T21:04:56.910Z,21.40
2022-08-17T21:07:30.120Z,21.40
2022-08-17T21:10:24.472Z,21.40
2022-08-17T21:12:55.090Z,21.40
2022-08-17T21:15:36.688Z,21.40
2022-08-17T21:18:06.759Z,21.30
2022-08-17T21:20:59.242Z,21.30
2022-08-17T21:23:45.532Z,21.30
2022-08-17T21:26:50.429Z,21.20
2022-08-17T21:29:31.753Z,21.20
2022-08-17T21:32:03.227Z,21.20
2022-08-17T21:34:37.430Z,21.10
2022-08-17T21:37:23.590Z,21.20
2022-08-17T21:39:58.901Z,21.20
2022-08-17T21:42:31.862Z,21.10
2022-08-17T21:45:21.842Z,21.10
2022-08-17T21:48:05.826Z,21.10
2022-08-17T21:50:34.575Z,21.00
2022-08-17T21:53:05.901Z,21.00
2022-08-17T21:55:36.301Z,21.00
2022-08-17T21:58:13.591Z,21.00
2022-08-17T22:00:44.864Z,20.90
2022-08-17T22:03:24.192Z,20.90
2022-08-17T22:05:52.601Z,20.90
2022-08-17T22:08:25.203Z,20.90
2022-08-17T22:11:01.836Z,20.90
2022-08-17T22:13:30.122Z,20.90
2022-08-17T22:16:28.876Z,20.80
2022-08-17T22:18:59.710Z,20.80
2022-08-17T22:21:27.859Z,20.80
2022-08-17T22:24:16.215Z,20.80
2022-08-17T22:27:08.853Z,20.70
2022-08-17T22:29:52.927Z,20.70
2022-08-17T22:32:46.229Z,20.70
2022-08-17T22:35:30.539Z,20.70
2022-08-17T22:38:18.222Z,20.70
2022-08-17T22:40:54.924Z,20.70
2022-08-17T22:43:26.725Z,20.60
2022-08-17T22:46:01.057Z,20.60
2022-08-17T22:48:31.478Z,20.60
2022-08-17T22:51:13.929Z,20.60
2022-08-17T22:54:31.562Z,20.50
2022-08-17T22:57:20.764Z,20.50
2022-08-17T22:59:51.162Z,20.50
2022-08-17T23:02:31.504Z,20.50
2022-08-17T23:05:13.265Z,20.40
2022-08-17T23:07:42.506Z,20.40
2022-08-17T23:10:12.975Z,20.40
2022-08-17T23:12:40.636Z,20.40
2022-08-17T23:15:16.379Z,20.40
2022-08-17T23:17:45.304Z,20.40
2022-08-17T23:20:15.504Z,20.40
2022-08-17T23:22:51.939Z,20.40
2022-08-17T23:25:31.453Z,20.40
2022-08-17T23:28:01.879Z,20.30
2022-08-17T23:30:35.843Z,20.30
2022-08-17T23:33:08.754Z,20.30
2022-08-17T23:35:40.166Z,20.30
2022-08-17T23:38:13.005Z,20.30
2022-08-17T23:40:41.388Z,20.30
2022-08-17T23:43:25.511Z,20.20
2022-08-17T23:45:59.936Z,20.20
2022-08-17T23:48:35.268Z,20.20
2022-08-17T23:51:09.314Z,20.10
2022-08-17T23:53:40.416Z,20.10
2022-08-17T23:56:11.241Z,20.10
2022-08-17T23:58:42.584Z,20.00
